• Join FlightAware (Why Join?)
  • Login
  • US Flag 
11:57AM EDT


 

Airport Tracker/Info


-or-


 

Live Flight TrackerFlight Track Log ✈ CJT575 ✈ 30-Apr-2012 ✈ CYHM - CYWG

Flight Track Log - Related Links

Times and Time Zones

All times are in EDT time to prevent confusion due to time zone crossing. See the CJT575 flight status page for this flight to view local times or setup timezone preferences in your user account.

Time Position Orientation Groundspeed Altitude Reporting Facility
EDT Latitude Longitude Course Direction KTS MPH feet Rate Location/Type
12:30AM 43.2619 -80.0712 276° West  Level FlightAware Approximate
12:31AM 43.2723 -80.2113 308° West  Level FlightAware Approximate
12:32AM 43.3396 -80.3292 306° West  Level FlightAware Approximate
12:33AM 43.4040 -80.4517 306° West  Level FlightAware Approximate
12:34AM 43.4690 -80.5737 303° West  Level FlightAware Approximate
12:35AM 43.5285 -80.7004 305° West  Level FlightAware Approximate
12:36AM 43.5920 -80.8243 306° West  Level FlightAware Approximate
12:37AM 43.6567 -80.9465 304° West  Level FlightAware Approximate
12:38AM 43.7183 -81.0725 305° West  Level FlightAware Approximate
12:39AM 43.7814 -81.1972 302° West  Level FlightAware Approximate
12:40AM 43.8399 -81.3259 305° West  Level FlightAware Approximate
12:41AM 43.9028 -81.4510 307° West  Level FlightAware Approximate
12:42AM 43.9692 -81.5717 304° West  Level FlightAware Approximate
12:43AM 44.0301 -81.6990 305° West  Level FlightAware Approximate
12:44AM 44.0925 -81.8250 306° West  Level FlightAware Approximate
12:45AM 44.1562 -81.9492 304° West  Level FlightAware Approximate
12:46AM 44.2177 -82.0751 301° West  Level FlightAware Approximate
12:47AM 44.2732 -82.2042 306° West  Level FlightAware Approximate
12:48AM 44.3367 -82.3273 304° West  Level FlightAware Approximate
12:49AM 44.3984 -82.4545 303° West  Level FlightAware Approximate
12:50AM 44.4580 -82.5826 304° West  Level FlightAware Approximate
12:51AM 44.5198 -82.7100 304° West  Level FlightAware Approximate
12:52AM 44.5810 -82.8380 304° West  Level FlightAware Approximate
12:53AM 44.6421 -82.9663 304° West  Level FlightAware Approximate
12:54AM 44.7031 -83.0949 304° West  Level FlightAware Approximate
12:55AM 44.7639 -83.2238 304° West  Level FlightAware Approximate
12:56AM 44.8246 -83.3529 303° West  Level FlightAware Approximate
12:57AM 44.8851 -83.4824 303° West  Level FlightAware Approximate
12:58AM 44.9455 -83.6120 302° West  Level FlightAware Approximate
12:59AM 45.0028 -83.7444 303° West  Level FlightAware Approximate
01:00AM 45.0628 -83.8747 303° West  Level FlightAware Approximate
01:01AM 45.1226 -84.0053 303° West  Level FlightAware Approximate
01:02AM 45.1823 -84.1362 303° West  Level FlightAware Approximate
01:03AM 45.2421 -84.2679 303° West  Level FlightAware Approximate
01:04AM 45.3017 -84.3998 303° West  Level FlightAware Approximate
01:05AM 45.3611 -84.5320 303° West  Level FlightAware Approximate
01:06AM 45.4204 -84.6645 302° West  Level FlightAware Approximate
01:07AM 45.4795 -84.7973 302° West  Level FlightAware Approximate
01:08AM 45.5385 -84.9303 302° West  Level FlightAware Approximate
01:09AM 45.5973 -85.0636 302° West  Level FlightAware Approximate
01:10AM 45.6560 -85.1972 302° West  Level FlightAware Approximate
01:11AM 45.7145 -85.3311 302° West  Level FlightAware Approximate
01:12AM 45.7729 -85.4653 302° West  Level FlightAware Approximate
01:13AM 45.8311 -85.5997 302° West  Level FlightAware Approximate
01:14AM 45.8891 -85.7344 302° West  Level FlightAware Approximate
01:15AM 45.9470 -85.8695 302° West  Level FlightAware Approximate
01:16AM 46.0047 -86.0048 302° West  Level FlightAware Approximate
01:17AM 46.0623 -86.1403 301° West  Level FlightAware Approximate
01:18AM 46.1197 -86.2762 301° West  Level FlightAware Approximate
01:19AM 46.1770 -86.4123 306° West  Level FlightAware Approximate
01:20AM 46.2410 -86.5417 301° West  Level FlightAware Approximate
01:21AM 46.2977 -86.6782 301° West  Level FlightAware Approximate
01:22AM 46.3543 -86.8150 301° West  Level FlightAware Approximate
01:23AM 46.4106 -86.9520 301° West  Level FlightAware Approximate
01:24AM 46.4668 -87.0894 301° West  Level FlightAware Approximate
01:25AM 46.5229 -87.2270 301° West  Level FlightAware Approximate
01:26AM 46.5787 -87.3649 300° West  Level FlightAware Approximate
01:27AM 46.6344 -87.5031 300° West  Level FlightAware Approximate
01:28AM 46.6899 -87.6416 300° West  Level FlightAware Approximate
01:29AM 46.7453 -87.7804 300° West  Level FlightAware Approximate
01:30AM 46.8005 -87.9195 300° West  Level FlightAware Approximate
01:31AM 46.8555 -88.0588 300° West  Level FlightAware Approximate
01:32AM 46.9104 -88.1984 300° West  Level FlightAware Approximate
01:33AM 46.9651 -88.3383 299° West  Level FlightAware Approximate
01:34AM 47.0186 -88.4798 300° West  Level FlightAware Approximate
01:35AM 47.0733 -88.6212 272° West  Level FlightAware Approximate
01:36AM 47.0773 -88.7654 300° West  Level FlightAware Approximate
01:37AM 47.1327 -88.9063 300° West  Level FlightAware Approximate
01:38AM 47.1880 -89.0475 300° West  Level FlightAware Approximate
01:39AM 47.2431 -89.1890 300° West  Level FlightAware Approximate
01:40AM 47.2980 -89.3308 300° West  Level FlightAware Approximate
01:41AM 47.3527 -89.4729 300° West  Level FlightAware Approximate
01:42AM 47.4077 -89.6163 299° West  Level FlightAware Approximate
01:43AM 47.4625 -89.7601 299° West  Level FlightAware Approximate
01:44AM 47.5172 -89.9042 307° West  Level FlightAware Approximate
01:45AM 47.5845 -90.0360 299° West  Level FlightAware Approximate
01:46AM 47.6383 -90.1811 306° West  Level FlightAware Approximate
01:47AM 47.7021 -90.3140 298° West  Level FlightAware Approximate
01:48AM 47.7550 -90.4601 298° West  Level FlightAware Approximate
01:49AM 47.8077 -90.6065 298° West  Level FlightAware Approximate
01:50AM 47.8602 -90.7532 298° West  Level FlightAware Approximate
01:51AM 47.9126 -90.9003 298° West  Level FlightAware Approximate
01:52AM 47.9647 -91.0476 298° West  Level FlightAware Approximate
01:53AM 48.0164 -91.1945 298° West  Level FlightAware Approximate
01:54AM 48.0680 -91.3418 298° West  Level FlightAware Approximate
01:55AM 48.1193 -91.4894 297° West  Level FlightAware Approximate
01:56AM 48.1705 -91.6372 297° West  Level FlightAware Approximate
01:57AM 48.2215 -91.7854 297° West  Level FlightAware Approximate
01:58AM 48.2723 -91.9338 297° West  Level FlightAware Approximate
01:59AM 48.3229 -92.0826 297° West  Level FlightAware Approximate
02:00AM 48.3733 -92.2316 297° West  Level FlightAware Approximate
02:01AM 48.4235 -92.3809 297° West  Level FlightAware Approximate
02:02AM 48.4735 -92.5305 297° West  Level FlightAware Approximate
02:03AM 48.5233 -92.6806 297° West  Level FlightAware Approximate
02:04AM 48.5730 -92.8310 296° West  Level FlightAware Approximate
02:05AM 48.6225 -92.9817 296° West  Level FlightAware Approximate
02:06AM 48.6718 -93.1326 296° West  Level FlightAware Approximate
02:07AM 48.7209 -93.2839 295° West  Level FlightAware Approximate
02:08AM 48.7675 -93.4369 296° West  Level FlightAware Approximate
02:09AM 48.8163 -93.5886 296° West  Level FlightAware Approximate
02:10AM 48.8649 -93.7407 296° West  Level FlightAware Approximate
02:11AM 48.9133 -93.8931 296° West  Level FlightAware Approximate
02:12AM 48.9614 -94.0458 300° West  Level FlightAware Approximate
02:13AM 49.0168 -94.1920 292° West  Level FlightAware Approximate
02:14AM 49.0592 -94.3488 295° West  Level FlightAware Approximate
02:15AM 49.1067 -94.5024 298° West  Level FlightAware Approximate
02:16AM 49.1568 -94.6488 290° West  Level FlightAware Approximate
02:17AM 49.1946 -94.8088 295° West  Level FlightAware Approximate
02:18AM 49.2408 -94.9635 296° West  Level FlightAware Approximate
02:19AM 49.2887 -95.1174 295° West  Level FlightAware Approximate
02:20AM 49.3354 -95.2723 295° West  Level FlightAware Approximate
02:21AM 49.3819 -95.4275 296° West  Level FlightAware Approximate
02:22AM 49.4299 -95.5817 294° West  Level FlightAware Approximate
02:23AM 49.4758 -95.7376 294° West  Level FlightAware Approximate
02:24AM 49.5215 -95.8938 294° West  Level FlightAware Approximate
02:25AM 49.5671 -96.0502 296° West  Level FlightAware Approximate
02:26AM 49.6157 -96.2046 294° West  Level FlightAware Approximate
02:27AM 49.6602 -96.3620 291° West  Level FlightAware Approximate
02:28AM 49.6991 -96.5202 294° West  Level FlightAware Approximate
02:29AM 49.7444 -96.6774 294° West  Level FlightAware Approximate
02:30AM 49.7900 -96.8330 296° West  Level FlightAware Approximate
02:31AM 49.8375 -96.9876 294° West  Level FlightAware Approximate
02:32AM 49.8819 -97.1442 294° West  Level FlightAware Approximate